createdAt,value
2023-01-09T00:00:55.535Z,12.55
2023-01-09T00:03:21.967Z,11.95
2023-01-09T00:05:51.859Z,11.00
2023-01-09T00:08:19.227Z,10.18
2023-01-09T00:10:45.712Z,12.98
2023-01-09T00:13:13.366Z,11.55
2023-01-09T00:15:40.809Z,10.98
2023-01-09T00:18:07.264Z,10.95
2023-01-09T00:20:34.007Z,9.77
2023-01-09T00:23:00.399Z,9.95
2023-01-09T00:25:26.811Z,9.95
2023-01-09T00:27:53.214Z,9.65
2023-01-09T00:30:19.695Z,10.82
2023-01-09T00:32:48.191Z,11.20
2023-01-09T00:35:16.808Z,10.77
2023-01-09T00:37:43.356Z,10.57
2023-01-09T00:40:11.194Z,10.40
2023-01-09T00:42:37.861Z,10.07
2023-01-09T00:45:09.170Z,9.90
2023-01-09T00:47:39.675Z,9.95
2023-01-09T00:50:14.788Z,10.63
2023-01-09T00:52:43.251Z,10.40
2023-01-09T00:55:10.087Z,11.02
2023-01-09T00:57:36.520Z,10.50
2023-01-09T01:00:03.795Z,10.20
2023-01-09T01:02:30.307Z,10.60
2023-01-09T01:05:15.477Z,11.27
2023-01-09T01:07:43.192Z,10.55
2023-01-09T01:10:13.556Z,10.93
2023-01-09T01:12:40.671Z,11.77
2023-01-09T01:15:09.629Z,12.23
2023-01-09T01:17:37.702Z,12.90
2023-01-09T01:20:06.314Z,13.05
2023-01-09T01:22:32.863Z,11.63
2023-01-09T01:24:59.463Z,11.85
2023-01-09T01:27:27.990Z,9.75
2023-01-09T01:29:54.731Z,9.75
2023-01-09T01:32:21.141Z,10.23
2023-01-09T01:34:47.892Z,9.20
2023-01-09T01:37:14.693Z,9.20
2023-01-09T01:39:41.283Z,8.73
2023-01-09T01:42:13.042Z,8.30
2023-01-09T01:45:09.701Z,7.93
2023-01-09T01:47:50.775Z,3.92
2023-01-09T01:50:50.492Z,3.83
2023-01-09T01:53:34.689Z,4.07
2023-01-09T01:56:21.861Z,3.17
2023-01-09T01:59:05.496Z,2.97
2023-01-09T02:01:33.804Z,3.15
2023-01-09T02:04:02.048Z,2.63
2023-01-09T02:06:30.393Z,2.85
2023-01-09T02:08:57.440Z,2.80
2023-01-09T02:11:24.039Z,2.85
2023-01-09T02:13:50.666Z,3.20
2023-01-09T02:16:35.299Z,2.30
2023-01-09T02:19:39.409Z,0.70
2023-01-09T02:22:20.331Z,0.85
2023-01-09T02:25:15.484Z,0.60
2023-01-09T02:28:19.924Z,0.47
2023-01-09T02:30:49.384Z,0.40
2023-01-09T02:33:50.586Z,0.30
2023-01-09T02:36:40.525Z,0.22
2023-01-09T02:39:22.272Z,0.20
2023-01-09T02:41:56.181Z,0.10
2023-01-09T02:44:24.627Z,0.20
2023-01-09T02:47:05.898Z,0.10
2023-01-09T02:49:38.349Z,0.25
2023-01-09T02:52:47.790Z,0.13
2023-01-09T02:55:52.798Z,0.20
2023-01-09T02:58:38.650Z,0.10
2023-01-09T03:01:17.278Z,0.30
2023-01-09T03:03:49.968Z,0.30
2023-01-09T03:06:29.604Z,0.20
2023-01-09T03:09:01.264Z,0.25
2023-01-09T03:11:32.513Z,0.40
2023-01-09T03:14:06.089Z,0.20
2023-01-09T03:16:36.295Z,0.30
2023-01-09T03:19:08.963Z,0.20
2023-01-09T03:21:36.286Z,0.40
2023-01-09T03:24:03.090Z,0.40
2023-01-09T03:26:31.014Z,0.47
2023-01-09T03:28:58.713Z,0.68
2023-01-09T03:31:28.345Z,0.40
2023-01-09T03:33:54.781Z,0.60
2023-01-09T03:36:22.624Z,0.40
2023-01-09T03:38:49.371Z,0.50
2023-01-09T03:41:19.312Z,0.50
2023-01-09T03:43:48.320Z,0.80
2023-01-09T03:46:16.178Z,0.57
2023-01-09T03:48:42.713Z,0.70
2023-01-09T03:51:09.746Z,0.50
2023-01-09T03:53:36.203Z,0.50
2023-01-09T03:56:03.667Z,0.40
2023-01-09T03:58:30.119Z,0.40
2023-01-09T04:01:02.717Z,0.40
2023-01-09T04:03:29.475Z,0.20
2023-01-09T04:05:55.980Z,0.30
2023-01-09T04:08:22.441Z,0.30
2023-01-09T04:10:50.267Z,0.30
2023-01-09T04:13:16.806Z,0.30
2023-01-09T04:15:43.226Z,0.30
2023-01-09T04:18:09.649Z,0.17
2023-01-09T04:20:36.112Z,0.10
2023-01-09T04:23:02.583Z,0.20
2023-01-09T04:25:29.105Z,0.20
2023-01-09T04:27:55.489Z,0.13
2023-01-09T04:30:22.109Z,0.10
2023-01-09T04:32:48.551Z,0.10
2023-01-09T04:35:15.084Z,0.20
2023-01-09T04:37:41.470Z,0.20
2023-01-09T04:40:08.949Z,0.20
2023-01-09T04:42:35.411Z,0.13
2023-01-09T04:45:01.857Z,0.10
2023-01-09T04:47:28.314Z,0.10
2023-01-09T04:50:13.595Z,0.10
2023-01-09T04:52:40.514Z,0.10
2023-01-09T04:55:08.583Z,0.00
2023-01-09T04:57:36.128Z,0.28
2023-01-09T05:00:04.424Z,0.00
2023-01-09T05:02:30.808Z,0.00
2023-01-09T05:04:57.275Z,0.00
2023-01-09T05:07:23.652Z,0.00
2023-01-09T05:09:50.100Z,0.00
2023-01-09T05:12:16.523Z,0.08
2023-01-09T05:14:42.915Z,0.00
2023-01-09T05:17:09.408Z,0.10
2023-01-09T05:19:37.991Z,0.17
2023-01-09T05:22:06.645Z,0.00
2023-01-09T05:24:33.223Z,0.10
2023-01-09T05:26:59.798Z,0.10
2023-01-09T05:29:26.258Z,0.10
2023-01-09T05:31:52.901Z,0.10
2023-01-09T05:34:20.734Z,0.13
2023-01-09T05:36:57.380Z,0.10
2023-01-09T05:39:23.840Z,0.10
2023-01-09T05:41:50.266Z,0.00
2023-01-09T05:44:16.857Z,0.10
2023-01-09T05:46:43.345Z,0.20
2023-01-09T05:49:09.837Z,0.10
2023-01-09T05:51:40.267Z,0.10
2023-01-09T05:54:07.467Z,0.10
2023-01-09T05:56:33.907Z,0.30
2023-01-09T05:59:00.319Z,0.20
2023-01-09T06:01:51.663Z,0.45
2023-01-09T06:04:18.177Z,0.17
2023-01-09T06:06:44.612Z,0.20
2023-01-09T06:09:11.413Z,0.20
2023-01-09T06:11:38.555Z,0.60
2023-01-09T06:14:06.481Z,0.15
2023-01-09T06:16:33.033Z,0.40
2023-01-09T06:18:59.432Z,0.20
2023-01-09T06:21:25.860Z,0.60
2023-01-09T06:23:52.286Z,0.20
2023-01-09T06:26:18.707Z,0.28
2023-01-09T06:28:45.110Z,0.50
2023-01-09T06:31:11.604Z,1.38
2023-01-09T06:33:39.168Z,0.28
2023-01-09T06:36:07.027Z,0.20
2023-01-09T06:38:33.460Z,0.20
2023-01-09T06:41:01.842Z,0.30
2023-01-09T06:43:28.305Z,0.20
2023-01-09T06:45:54.819Z,0.40
2023-01-09T06:48:21.241Z,0.30
2023-01-09T06:50:56.900Z,0.30
2023-01-09T06:53:23.598Z,0.80
2023-01-09T06:55:50.062Z,0.40
2023-01-09T06:58:16.812Z,0.20
2023-01-09T07:00:43.207Z,0.40
2023-01-09T07:03:10.168Z,0.32
2023-01-09T07:05:42.022Z,1.20
2023-01-09T07:08:09.386Z,0.38
2023-01-09T07:10:35.988Z,0.55
2023-01-09T07:13:02.436Z,0.60
2023-01-09T07:15:29.214Z,0.50
2023-01-09T07:17:55.623Z,0.40
2023-01-09T07:20:22.045Z,0.55
2023-01-09T07:22:48.471Z,1.58
2023-01-09T07:25:14.863Z,0.50
2023-01-09T07:27:42.419Z,0.73
2023-01-09T07:30:09.508Z,0.50
2023-01-09T07:32:35.928Z,0.20
2023-01-09T07:35:02.306Z,0.60
2023-01-09T07:37:28.708Z,0.30
2023-01-09T07:39:55.109Z,0.70
2023-01-09T07:42:21.517Z,0.38
2023-01-09T07:44:47.921Z,0.50
2023-01-09T07:47:14.345Z,0.50
2023-01-09T07:49:40.756Z,0.50
2023-01-09T07:52:07.162Z,0.50
2023-01-09T07:54:33.551Z,0.40
2023-01-09T07:56:59.981Z,0.38
2023-01-09T07:59:27.833Z,0.60
2023-01-09T08:02:05.510Z,0.68
2023-01-09T08:04:31.966Z,0.80
2023-01-09T08:06:58.378Z,0.43
2023-01-09T08:09:24.767Z,0.60
2023-01-09T08:11:51.184Z,0.40
2023-01-09T08:14:17.636Z,0.50
2023-01-09T08:16:44.060Z,0.43
2023-01-09T08:19:12.086Z,0.63
2023-01-09T08:21:39.547Z,0.90
2023-01-09T08:24:06.231Z,0.50
2023-01-09T08:26:32.733Z,0.90
2023-01-09T08:28:59.107Z,0.70
2023-01-09T08:31:25.557Z,0.60
2023-01-09T08:33:52.029Z,1.00
2023-01-09T08:36:18.443Z,0.63
2023-01-09T08:38:44.845Z,2.20
2023-01-09T08:41:29.891Z,0.30
2023-01-09T08:44:14.693Z,0.40
2023-01-09T08:47:00.728Z,0.50
2023-01-09T08:49:29.710Z,0.30
2023-01-09T08:51:56.089Z,0.30
2023-01-09T08:54:22.507Z,0.43
2023-01-09T08:56:48.989Z,0.50
2023-01-09T08:59:16.103Z,0.20
2023-01-09T09:01:42.543Z,0.50
2023-01-09T09:04:09.012Z,0.52
2023-01-09T09:06:35.561Z,0.50
2023-01-09T09:09:03.344Z,0.60
2023-01-09T09:11:35.797Z,0.90
2023-01-09T09:14:25.934Z,0.40
2023-01-09T09:16:52.999Z,0.73
2023-01-09T09:19:19.386Z,1.20
2023-01-09T09:21:45.757Z,0.70
2023-01-09T09:24:12.187Z,0.80
2023-01-09T09:26:38.765Z,0.82
2023-01-09T09:29:05.278Z,0.40
2023-01-09T09:31:31.808Z,0.50
2023-01-09T09:33:58.801Z,0.40
2023-01-09T09:36:25.246Z,0.90
2023-01-09T09:38:51.760Z,0.40
2023-01-09T09:41:56.111Z,0.65
2023-01-09T09:44:53.476Z,0.50
2023-01-09T09:47:33.783Z,0.80
2023-01-09T09:50:16.250Z,0.30
2023-01-09T09:53:03.736Z,0.25
2023-01-09T09:55:33.702Z,0.60
2023-01-09T09:58:04.659Z,0.43
2023-01-09T10:00:31.301Z,0.40
2023-01-09T10:03:10.976Z,0.40
2023-01-09T10:05:42.411Z,0.35
2023-01-09T10:08:28.707Z,0.40
2023-01-09T10:10:55.745Z,0.60
2023-01-09T10:13:44.453Z,0.50
2023-01-09T10:16:29.998Z,0.60
2023-01-09T10:19:05.453Z,0.45
2023-01-09T10:21:46.503Z,0.50
2023-01-09T10:24:40.942Z,0.63
2023-01-09T10:27:31.720Z,0.30
2023-01-09T10:30:33.587Z,0.50
2023-01-09T10:33:02.918Z,0.30
2023-01-09T10:36:06.925Z,0.60
2023-01-09T10:38:38.777Z,1.48
2023-01-09T10:41:13.698Z,0.40
2023-01-09T10:43:55.274Z,0.32
2023-01-09T10:46:37.466Z,0.50
2023-01-09T10:49:13.372Z,0.40
2023-01-09T10:51:48.061Z,0.57
2023-01-09T10:54:23.562Z,0.20
2023-01-09T10:57:12.732Z,0.32
2023-01-09T10:59:41.302Z,0.20
2023-01-09T11:02:35.153Z,1.05
2023-01-09T11:05:01.724Z,0.35
2023-01-09T11:07:42.815Z,0.50
2023-01-09T11:10:12.030Z,0.38
2023-01-09T11:12:39.841Z,0.47
2023-01-09T11:15:15.585Z,0.50
2023-01-09T11:17:46.438Z,0.40
2023-01-09T11:20:16.391Z,0.30
2023-01-09T11:22:48.093Z,0.40
2023-01-09T11:25:16.612Z,0.35
2023-01-09T11:28:03.473Z,0.30
2023-01-09T11:32:58.648Z,0.47
2023-01-09T11:35:34.125Z,0.20
2023-01-09T11:38:03.493Z,0.35
2023-01-09T11:40:37.448Z,0.40
2023-01-09T11:43:15.685Z,0.52
2023-01-09T11:46:00.984Z,0.40
2023-01-09T11:48:36.217Z,0.30
2023-01-09T11:51:24.011Z,0.47
2023-01-09T11:53:59.444Z,0.30
2023-01-09T11:56:26.332Z,0.40
2023-01-09T11:58:53.137Z,0.30
2023-01-09T12:01:57.293Z,0.82
2023-01-09T12:04:37.616Z,0.40
2023-01-09T12:07:48.733Z,0.55
2023-01-09T12:10:33.351Z,0.95
2023-01-09T12:13:21.624Z,0.43
2023-01-09T12:15:59.083Z,0.30
2023-01-09T12:18:40.796Z,0.60
2023-01-09T12:21:32.831Z,0.55
2023-01-09T12:24:38.970Z,0.40
2023-01-09T12:27:46.133Z,0.47
2023-01-09T12:30:45.765Z,0.30
2023-01-09T12:33:36.785Z,0.40
2023-01-09T12:36:09.178Z,0.22
2023-01-09T12:39:23.412Z,0.30
2023-01-09T12:42:14.034Z,0.60
2023-01-09T12:44:48.192Z,0.30
2023-01-09T12:47:45.122Z,1.50
2023-01-09T12:50:14.776Z,0.95
2023-01-09T12:52:47.174Z,0.50
2023-01-09T12:55:13.514Z,0.50
2023-01-09T12:57:44.656Z,0.40
2023-01-09T13:00:50.201Z,0.50
2023-01-09T13:03:58.989Z,0.50
2023-01-09T13:06:34.347Z,0.40
2023-01-09T13:09:13.256Z,0.32
2023-01-09T13:11:53.925Z,0.30
2023-01-09T13:14:44.254Z,0.35
2023-01-09T13:17:53.409Z,0.90
2023-01-09T13:20:53.363Z,0.30
2023-01-09T13:23:58.520Z,0.28
2023-01-09T13:26:37.275Z,0.50
2023-01-09T13:29:25.296Z,0.40
2023-01-09T13:31:51.808Z,0.50
2023-01-09T13:34:29.278Z,0.40
2023-01-09T13:36:57.642Z,0.30
2023-01-09T13:39:29.909Z,0.25
2023-01-09T13:42:21.217Z,0.35
2023-01-09T13:44:56.141Z,0.45
2023-01-09T13:47:28.432Z,0.80
2023-01-09T13:50:20.872Z,0.68
2023-01-09T13:52:47.530Z,0.30
2023-01-09T13:55:16.237Z,0.50
2023-01-09T13:57:45.550Z,0.52
2023-01-09T14:00:18.319Z,0.70
2023-01-09T14:02:46.596Z,0.40
2023-01-09T14:05:37.023Z,0.70
2023-01-09T14:08:13.294Z,0.38
2023-01-09T14:10:57.898Z,0.38
2023-01-09T14:13:27.970Z,0.40
2023-01-09T14:16:06.549Z,0.30
2023-01-09T14:18:40.301Z,0.70
2023-01-09T14:21:10.835Z,0.50
2023-01-09T14:24:04.422Z,0.40
2023-01-09T14:26:57.998Z,0.40
2023-01-09T14:29:44.189Z,0.65
2023-01-09T14:32:24.932Z,0.50
2023-01-09T14:35:25.410Z,0.65
2023-01-09T14:38:23.567Z,0.30
2023-01-09T14:41:02.473Z,0.40
2023-01-09T14:44:00.745Z,0.45
2023-01-09T14:46:37.998Z,1.10
2023-01-09T14:49:27.996Z,0.52
2023-01-09T14:52:15.525Z,1.13
2023-01-09T14:54:43.847Z,1.08
2023-01-09T14:57:27.403Z,0.57
2023-01-09T15:00:14.536Z,0.70
2023-01-09T15:02:47.360Z,0.73
2023-01-09T15:05:31.653Z,1.10
2023-01-09T15:08:03.811Z,0.63
2023-01-09T15:10:45.373Z,0.95
2023-01-09T15:13:39.861Z,0.60
2023-01-09T15:16:07.380Z,0.70
2023-01-09T15:18:42.547Z,1.08
2023-01-09T15:21:22.655Z,0.90
2023-01-09T15:24:22.138Z,0.80
2023-01-09T15:27:14.597Z,0.88
2023-01-09T15:29:41.364Z,1.17
2023-01-09T15:32:28.794Z,0.70
2023-01-09T15:34:57.468Z,1.00
2023-01-09T15:40:21.976Z,0.70
2023-01-09T15:43:01.541Z,0.60
2023-01-09T15:45:49.303Z,0.73
2023-01-09T15:48:32.382Z,1.10
2023-01-09T15:51:19.481Z,1.13
2023-01-09T15:54:01.523Z,1.20
2023-01-09T15:56:34.701Z,1.55
2023-01-09T15:59:01.520Z,0.75
2023-01-09T16:01:28.524Z,0.65
2023-01-09T16:04:08.583Z,1.42
2023-01-09T16:06:38.123Z,0.80
2023-01-09T16:09:29.062Z,0.63
2023-01-09T16:12:00.196Z,0.63
2023-01-09T16:14:38.371Z,1.25
2023-01-09T16:17:07.707Z,1.40
2023-01-09T16:19:49.978Z,0.50
2023-01-09T16:22:33.584Z,1.52
2023-01-09T16:25:03.688Z,1.10
2023-01-09T16:27:41.515Z,0.50
2023-01-09T16:30:26.125Z,0.60
2023-01-09T16:32:52.722Z,1.05
2023-01-09T16:35:22.507Z,0.60
2023-01-09T16:37:48.915Z,0.75
2023-01-09T16:40:17.312Z,0.60
2023-01-09T16:43:03.673Z,0.70
2023-01-09T16:45:37.962Z,0.90
2023-01-09T16:48:16.072Z,1.02
2023-01-09T16:50:44.752Z,0.88
2023-01-09T16:53:19.447Z,1.80
2023-01-09T16:55:46.652Z,1.17
2023-01-09T16:58:35.755Z,1.77
2023-01-09T17:01:02.252Z,0.82
2023-01-09T17:03:33.027Z,0.77
2023-01-09T17:06:01.331Z,0.90
2023-01-09T17:08:44.492Z,0.68
2023-01-09T17:11:20.050Z,0.52
2023-01-09T17:13:47.520Z,0.55
2023-01-09T17:16:15.549Z,0.70
2023-01-09T17:18:42.957Z,0.70
2023-01-09T17:21:24.652Z,1.00
2023-01-09T17:24:18.539Z,0.80
2023-01-09T17:27:09.171Z,0.70
2023-01-09T17:29:36.081Z,0.90
2023-01-09T17:32:15.797Z,0.70
2023-01-09T17:34:55.633Z,0.40
2023-01-09T17:37:33.616Z,2.40
2023-01-09T17:40:03.580Z,1.10
2023-01-09T17:42:30.689Z,0.80
2023-01-09T17:45:02.250Z,0.60
2023-01-09T17:47:28.679Z,0.55
2023-01-09T17:49:55.236Z,0.77
2023-01-09T17:52:21.984Z,0.60
2023-01-09T17:54:48.428Z,0.70
2023-01-09T17:57:17.412Z,0.43
2023-01-09T17:59:44.958Z,0.75
2023-01-09T18:02:17.019Z,0.80
2023-01-09T18:04:45.819Z,1.20
2023-01-09T18:07:15.510Z,0.70
2023-01-09T18:09:51.086Z,3.67
2023-01-09T18:12:28.648Z,0.70
2023-01-09T18:14:55.261Z,0.50
2023-01-09T18:17:44.525Z,0.60
2023-01-09T18:20:31.208Z,0.60
2023-01-09T18:25:23.920Z,0.90
2023-01-09T18:27:52.384Z,0.70
2023-01-09T18:30:18.809Z,0.98
2023-01-09T18:32:45.274Z,0.80
2023-01-09T18:35:11.656Z,1.17
2023-01-09T18:37:38.067Z,0.90
2023-01-09T18:40:04.907Z,0.90
2023-01-09T18:42:31.293Z,0.85
2023-01-09T18:44:57.700Z,0.90
2023-01-09T18:47:24.072Z,1.00
2023-01-09T18:49:50.455Z,1.50
2023-01-09T18:52:16.879Z,1.17
2023-01-09T18:54:43.277Z,1.17
2023-01-09T18:57:33.643Z,1.58
2023-01-09T19:00:00.136Z,1.48
2023-01-09T19:02:32.494Z,1.77
2023-01-09T19:05:05.257Z,1.23
2023-01-09T19:07:31.897Z,1.50
2023-01-09T19:10:04.933Z,1.27
2023-01-09T19:12:31.377Z,1.38
2023-01-09T19:15:01.073Z,1.40
2023-01-09T19:17:39.148Z,1.48
2023-01-09T19:20:33.591Z,1.48
2023-01-09T19:23:03.957Z,1.90
2023-01-09T19:25:32.385Z,1.77
2023-01-09T19:28:00.341Z,1.40
2023-01-09T19:30:40.666Z,1.27
2023-01-09T19:33:10.795Z,1.98
2023-01-09T19:36:02.056Z,1.20
2023-01-09T19:38:36.823Z,1.77
2023-01-09T19:41:14.636Z,1.50
2023-01-09T19:43:48.431Z,1.70
2023-01-09T19:46:19.339Z,1.10
2023-01-09T19:48:46.714Z,0.80
2023-01-09T19:51:16.074Z,1.13
2023-01-09T19:54:03.247Z,0.70
2023-01-09T19:56:40.517Z,0.40
2023-01-09T19:59:15.886Z,0.50
2023-01-09T20:01:58.146Z,0.40
2023-01-09T20:04:35.540Z,0.50
2023-01-09T20:07:10.053Z,0.50
2023-01-09T20:09:36.818Z,0.50
2023-01-09T20:12:05.228Z,0.68
2023-01-09T20:14:31.754Z,0.40
2023-01-09T20:17:00.888Z,0.80
2023-01-09T20:19:39.446Z,0.50
2023-01-09T20:22:05.882Z,0.40
2023-01-09T20:24:43.571Z,0.57
2023-01-09T20:27:10.058Z,0.63
2023-01-09T20:29:36.933Z,0.60
2023-01-09T20:32:06.162Z,0.75
2023-01-09T20:34:32.558Z,0.68
2023-01-09T20:36:58.968Z,0.63
2023-01-09T20:39:30.469Z,0.50
2023-01-09T20:42:00.034Z,0.70
2023-01-09T20:44:26.465Z,0.70
2023-01-09T20:46:53.549Z,0.70
2023-01-09T20:49:20.979Z,0.60
2023-01-09T20:51:52.237Z,0.63
2023-01-09T20:54:48.599Z,0.80
2023-01-09T20:57:28.475Z,0.70
2023-01-09T20:59:54.856Z,0.60
2023-01-09T21:02:22.365Z,0.80
2023-01-09T21:04:49.380Z,0.60
2023-01-09T21:07:31.872Z,0.50
2023-01-09T21:09:58.305Z,0.55
2023-01-09T21:12:37.659Z,0.60
2023-01-09T21:15:09.233Z,0.60
2023-01-09T21:17:39.469Z,0.70
2023-01-09T21:20:08.544Z,0.90
2023-01-09T21:22:36.017Z,1.00
2023-01-09T21:25:05.459Z,1.00
2023-01-09T21:27:35.968Z,1.40
2023-01-09T21:30:04.880Z,0.90
2023-01-09T21:32:32.804Z,1.20
2023-01-09T21:35:05.173Z,1.20
2023-01-09T21:37:38.307Z,1.17
2023-01-09T21:40:08.839Z,0.90
2023-01-09T21:42:54.095Z,1.20
2023-01-09T21:45:39.037Z,0.98
2023-01-09T21:48:05.934Z,0.70
2023-01-09T21:50:37.532Z,0.60
2023-01-09T21:53:04.426Z,0.70
2023-01-09T21:55:33.681Z,0.50
2023-01-09T21:58:04.165Z,0.50
2023-01-09T22:00:34.668Z,0.40
2023-01-09T22:03:01.236Z,0.30
2023-01-09T22:05:27.670Z,0.50
2023-01-09T22:07:55.341Z,0.47
2023-01-09T22:10:26.776Z,0.60
2023-01-09T22:13:11.870Z,0.68
2023-01-09T22:15:41.278Z,0.70
2023-01-09T22:18:07.736Z,0.90
2023-01-09T22:20:34.176Z,0.80
2023-01-09T22:23:01.123Z,0.90
2023-01-09T22:25:27.525Z,0.85
2023-01-09T22:27:53.920Z,0.80
2023-01-09T22:30:20.360Z,0.90
2023-01-09T22:32:50.992Z,0.98
2023-01-09T22:35:17.483Z,0.80
2023-01-09T22:37:43.936Z,1.02
2023-01-09T22:40:10.994Z,1.05
2023-01-09T22:42:37.450Z,0.98
2023-01-09T22:45:04.508Z,0.93
2023-01-09T22:47:30.915Z,0.77
2023-01-09T22:49:57.291Z,0.93
2023-01-09T22:52:23.843Z,0.85
2023-01-09T22:54:50.531Z,0.73
2023-01-09T22:57:16.949Z,0.65
2023-01-09T22:59:43.364Z,0.60
2023-01-09T23:02:09.841Z,0.50
2023-01-09T23:04:36.253Z,0.60
2023-01-09T23:07:02.647Z,0.45
2023-01-09T23:09:29.053Z,0.50
2023-01-09T23:12:05.260Z,0.70
2023-01-09T23:14:37.328Z,0.80
2023-01-09T23:17:05.907Z,0.90
2023-01-09T23:19:32.711Z,0.80
2023-01-09T23:22:01.085Z,0.88
2023-01-09T23:24:28.369Z,0.60
2023-01-09T23:26:56.462Z,0.65
2023-01-09T23:29:24.428Z,0.80
2023-01-09T23:31:53.465Z,1.00
2023-01-09T23:34:28.561Z,1.00
2023-01-09T23:36:57.243Z,0.88
2023-01-09T23:39:23.994Z,1.10
2023-01-09T23:42:08.980Z,1.20
2023-01-09T23:44:36.378Z,1.20
2023-01-09T23:50:53.440Z,1.00
2023-01-09T23:53:22.059Z,1.10
2023-01-09T23:55:49.089Z,1.00
2023-01-09T23:58:28.646Z,1.00
